aviador You're here:

KMVY Decoded Metar

MARTHAS VINEYARD in MA, USA
Report Time2018-07-23 11:38:00
UTC Time2018-07-23 11:43:26
Flight Rules vfr VFR
Wind150° at 15 Gusting to 22 kt
W.Decomp.*RWY 15: 14.5 kt HW 3.9 kt RCW
RWY 24: 3.9 kt HW 14.5 kt LCW
W.Rank150° ranks 30
Current wind is above 150° avg. (9.2)
Visibility9999 m
Phenomena:N/A
Clouds:Few 005 Hf
Few 020 Hf
Broken 065 Hf
Expected CloudBase > 400 ft AGL from Temp-Dew spread
Ceiling6,500 ft
Temp23°C (ISA +8)
Dew Point22°C (94% RH)
AAT22.3°C
QNH1023 hPa
Density Alt1,004 ft
Elevation52 ft
Report Wrong Elevation
Raw Report
SPECI KMVY 231138Z 15015G22KT 8SM FEW005 FEW020 BKN065 23/22 A3021
RMK AO2 T02280217=

Extra information for KMVY:More info

Metar Taf Metar & Taf Last 4 Metars F.Rules Stats Wind Profile Meteogram Temp Stats Airport Information Weather charts Add Link Nearby VenuesMetar ALERT Operation Metar Decoded Social comments

AIRNAV info for KMVY